createdAt,value
2023-05-19T00:00:10.337Z,16.31
2023-05-19T00:03:14.106Z,16.43
2023-05-19T00:06:19.858Z,16.38
2023-05-19T00:09:23.966Z,16.46
2023-05-19T00:12:28.464Z,16.40
2023-05-19T00:15:32.461Z,16.35
2023-05-19T00:18:36.455Z,16.36
2023-05-19T00:21:40.770Z,16.40
2023-05-19T00:24:44.971Z,16.57
2023-05-19T00:27:48.691Z,16.77
2023-05-19T00:30:52.932Z,17.22
2023-05-19T00:33:56.692Z,17.67
2023-05-19T00:37:03.497Z,17.69
2023-05-19T00:40:07.981Z,17.72
2023-05-19T00:43:12.092Z,17.76
2023-05-19T00:46:16.682Z,18.11
2023-05-19T00:49:20.776Z,18.35
2023-05-19T00:52:24.430Z,18.48
2023-05-19T00:55:30.657Z,18.29
2023-05-19T00:58:36.910Z,17.83
2023-05-19T01:01:40.986Z,17.84
2023-05-19T01:04:45.934Z,17.89
2023-05-19T01:07:54.451Z,17.83
2023-05-19T01:10:58.339Z,17.27
2023-05-19T01:14:02.478Z,17.35
2023-05-19T01:17:15.796Z,17.27
2023-05-19T01:20:47.282Z,16.84
2023-05-19T01:24:06.161Z,16.27
2023-05-19T01:27:33.285Z,15.87
2023-05-19T01:30:40.072Z,15.57
2023-05-19T01:33:46.005Z,15.58
2023-05-19T01:36:51.978Z,15.76
2023-05-19T01:39:57.004Z,15.99
2023-05-19T01:43:02.596Z,16.53
2023-05-19T01:46:08.606Z,17.08
2023-05-19T01:49:12.685Z,17.42
2023-05-19T01:52:16.588Z,18.62
2023-05-19T01:55:20.497Z,19.06
2023-05-19T01:58:30.155Z,19.42
2023-05-19T02:01:55.941Z,20.82
2023-05-19T02:05:09.002Z,19.68
2023-05-19T02:08:17.688Z,20.44
2023-05-19T02:11:24.060Z,20.40
2023-05-19T02:14:50.130Z,20.74
2023-05-19T02:17:56.704Z,20.74
2023-05-19T02:21:00.608Z,20.34
2023-05-19T02:24:04.969Z,19.45
2023-05-19T02:27:08.722Z,18.83
2023-05-19T02:30:13.263Z,18.49
2023-05-19T02:33:16.281Z,17.68
2023-05-19T02:36:19.717Z,17.15
2023-05-19T02:39:23.401Z,16.66
2023-05-19T02:42:27.642Z,16.33
2023-05-19T02:45:30.667Z,16.06
2023-05-19T02:48:34.436Z,15.71
2023-05-19T02:51:39.630Z,15.27
2023-05-19T02:54:42.760Z,14.92
2023-05-19T02:57:46.486Z,14.79
2023-05-19T03:00:49.616Z,14.88
2023-05-19T03:03:53.759Z,14.85
2023-05-19T03:07:01.023Z,14.72
2023-05-19T03:10:07.587Z,14.95
2023-05-19T03:13:11.898Z,15.56
2023-05-19T03:16:15.948Z,15.75
2023-05-19T03:19:19.276Z,16.09
2023-05-19T03:22:23.296Z,16.44
2023-05-19T03:25:26.707Z,16.39
2023-05-19T03:28:30.752Z,16.46
2023-05-19T03:31:33.902Z,16.43
2023-05-19T03:34:37.613Z,15.72
2023-05-19T03:37:40.627Z,15.59
2023-05-19T03:40:44.878Z,15.82
2023-05-19T03:43:48.706Z,15.95
2023-05-19T03:46:52.047Z,15.55
2023-05-19T03:50:15.658Z,15.37
2023-05-19T03:53:30.907Z,15.56
2023-05-19T03:56:34.311Z,15.38
2023-05-19T03:59:38.405Z,15.55
2023-05-19T04:02:41.841Z,15.60
2023-05-19T04:05:45.722Z,15.55
2023-05-19T04:08:49.305Z,15.75
2023-05-19T04:11:52.297Z,15.83
2023-05-19T04:14:56.346Z,15.95
2023-05-19T04:18:00.941Z,16.09
2023-05-19T04:21:04.474Z,16.27
2023-05-19T04:24:08.297Z,16.26
2023-05-19T04:27:13.569Z,16.24
2023-05-19T04:30:22.877Z,16.24
2023-05-19T04:33:26.588Z,16.20
2023-05-19T04:36:29.602Z,16.24
2023-05-19T04:39:33.041Z,16.24
2023-05-19T04:42:36.209Z,16.02
2023-05-19T04:45:43.415Z,16.10
2023-05-19T04:48:48.263Z,16.36
2023-05-19T04:51:55.555Z,16.39
2023-05-19T04:55:04.785Z,16.45
2023-05-19T04:58:09.058Z,16.54
2023-05-19T05:01:14.451Z,16.26
2023-05-19T05:04:19.077Z,16.42
2023-05-19T05:07:23.446Z,16.56
2023-05-19T05:10:29.173Z,16.75
2023-05-19T05:13:33.317Z,15.82
2023-05-19T05:16:38.177Z,15.31
2023-05-19T05:19:44.486Z,15.33
2023-05-19T05:22:48.780Z,15.51
2023-05-19T05:25:52.943Z,15.38
2023-05-19T05:28:57.178Z,15.62
2023-05-19T05:32:01.388Z,15.43
2023-05-19T05:35:06.082Z,15.57
2023-05-19T05:38:11.983Z,15.08
2023-05-19T05:41:17.136Z,15.20
2023-05-19T05:44:22.624Z,14.96
2023-05-19T05:47:27.753Z,14.79
2023-05-19T05:50:31.889Z,14.78
2023-05-19T05:53:42.747Z,14.82
2023-05-19T05:56:48.323Z,14.50
2023-05-19T05:59:53.660Z,14.21
2023-05-19T06:02:57.833Z,14.09
2023-05-19T06:06:02.478Z,13.96
2023-05-19T06:09:05.574Z,13.84
2023-05-19T06:12:09.164Z,13.85
2023-05-19T06:15:38.201Z,13.91
2023-05-19T06:18:56.057Z,14.13
2023-05-19T06:21:59.295Z,14.06
2023-05-19T06:25:02.624Z,13.98
2023-05-19T06:28:05.808Z,13.88
2023-05-19T06:31:09.247Z,13.70
2023-05-19T06:34:41.375Z,13.59
2023-05-19T06:37:45.073Z,13.51
2023-05-19T06:40:49.214Z,13.41
2023-05-19T06:43:52.782Z,13.42
2023-05-19T06:46:58.107Z,13.52
2023-05-19T06:50:01.623Z,13.45
2023-05-19T06:53:10.416Z,13.31
2023-05-19T06:56:15.586Z,13.30
2023-05-19T06:59:22.385Z,13.39
2023-05-19T07:02:27.203Z,13.43
2023-05-19T07:05:30.388Z,13.41
2023-05-19T07:08:37.673Z,13.45
2023-05-19T07:11:43.330Z,13.46
2023-05-19T07:14:47.237Z,13.40
2023-05-19T07:17:52.181Z,13.42
2023-05-19T07:20:55.458Z,13.28
2023-05-19T07:23:58.525Z,13.12
2023-05-19T07:27:04.504Z,12.99
2023-05-19T07:30:11.541Z,13.02
2023-05-19T07:33:14.544Z,12.79
2023-05-19T07:36:17.714Z,12.37
2023-05-19T07:39:21.252Z,11.99
2023-05-19T07:42:24.977Z,11.86
2023-05-19T07:45:28.975Z,11.75
2023-05-19T07:48:33.423Z,11.68
2023-05-19T07:51:37.431Z,11.65
2023-05-19T07:54:41.738Z,11.68
2023-05-19T07:57:45.532Z,11.70
2023-05-19T08:00:49.234Z,11.76
2023-05-19T08:03:53.373Z,11.83
2023-05-19T08:06:57.115Z,11.91
2023-05-19T08:10:01.080Z,12.00
2023-05-19T08:13:05.743Z,12.07
2023-05-19T08:16:09.910Z,12.18
2023-05-19T08:19:13.732Z,12.29
2023-05-19T08:22:17.877Z,12.30
2023-05-19T08:25:21.722Z,12.25
2023-05-19T08:28:25.859Z,12.25
2023-05-19T08:31:30.150Z,12.27
2023-05-19T08:34:34.350Z,12.41
2023-05-19T08:37:38.698Z,12.40
2023-05-19T08:40:43.702Z,12.47
2023-05-19T08:43:47.490Z,12.46
2023-05-19T08:46:55.565Z,12.43
2023-05-19T08:50:11.550Z,12.24
2023-05-19T08:53:33.946Z,12.18
2023-05-19T08:56:39.702Z,12.13
2023-05-19T08:59:45.215Z,12.07
2023-05-19T09:03:00.855Z,12.02
2023-05-19T09:06:10.227Z,11.99
2023-05-19T09:09:14.255Z,11.56
2023-05-19T09:12:18.323Z,11.22
2023-05-19T09:15:27.234Z,10.96
2023-05-19T09:18:31.270Z,10.82
2023-05-19T09:21:35.116Z,10.79
2023-05-19T09:24:41.353Z,10.81
2023-05-19T09:27:45.066Z,10.84
2023-05-19T09:30:49.150Z,10.87
2023-05-19T09:33:54.558Z,10.89
2023-05-19T09:37:00.853Z,10.80
2023-05-19T09:40:05.972Z,10.73
2023-05-19T09:43:09.998Z,10.68
2023-05-19T09:46:14.920Z,10.64
2023-05-19T09:49:25.533Z,10.56
2023-05-19T09:52:29.075Z,10.56
2023-05-19T09:55:34.366Z,10.55
2023-05-19T09:58:39.570Z,10.48
2023-05-19T10:01:47.428Z,10.31
2023-05-19T10:04:53.117Z,10.09
2023-05-19T10:07:57.239Z,9.93
2023-05-19T10:11:01.584Z,9.82
2023-05-19T10:14:06.258Z,9.76
2023-05-19T10:17:11.282Z,9.64
2023-05-19T10:20:17.140Z,9.61
2023-05-19T10:23:21.113Z,9.53
2023-05-19T10:26:27.143Z,9.47
2023-05-19T10:29:35.163Z,9.43
2023-05-19T10:32:41.376Z,9.40
2023-05-19T10:36:10.329Z,9.40
2023-05-19T10:39:39.074Z,9.40
2023-05-19T10:43:03.172Z,9.38
2023-05-19T10:46:07.330Z,9.33
2023-05-19T10:49:10.416Z,9.29
2023-05-19T10:52:28.031Z,9.23
2023-05-19T10:55:57.050Z,9.15
2023-05-19T10:59:02.198Z,9.02
2023-05-19T11:02:08.057Z,8.93
2023-05-19T11:05:19.152Z,8.88
2023-05-19T11:08:53.350Z,8.80
2023-05-19T11:12:03.926Z,8.76
2023-05-19T11:15:09.002Z,8.83
2023-05-19T11:18:17.215Z,8.79
2023-05-19T11:21:21.638Z,8.80
2023-05-19T11:24:51.151Z,8.84
2023-05-19T11:27:56.072Z,8.92
2023-05-19T11:31:00.959Z,9.03
2023-05-19T11:34:07.528Z,9.05
2023-05-19T11:37:10.677Z,9.03
2023-05-19T11:40:16.403Z,9.10
2023-05-19T11:43:19.427Z,9.14
2023-05-19T11:46:23.112Z,9.22
2023-05-19T11:49:26.421Z,9.28
2023-05-19T11:52:30.331Z,9.31
2023-05-19T11:55:33.507Z,9.36
2023-05-19T11:58:38.298Z,9.42
2023-05-19T12:01:41.666Z,9.46
2023-05-19T12:04:44.942Z,9.45
2023-05-19T12:07:50.631Z,9.45
2023-05-19T12:10:54.696Z,9.48
2023-05-19T12:14:02.390Z,9.55
2023-05-19T12:17:13.942Z,9.63
2023-05-19T12:20:21.003Z,9.53
2023-05-19T12:23:25.538Z,9.50
2023-05-19T12:26:28.998Z,9.53
2023-05-19T12:29:33.649Z,9.59
2023-05-19T12:32:37.354Z,9.60
2023-05-19T12:35:41.581Z,9.62
2023-05-19T12:38:46.269Z,9.62
2023-05-19T12:41:50.527Z,9.60
2023-05-19T12:44:56.683Z,9.62
2023-05-19T12:48:12.211Z,9.67
2023-05-19T12:51:20.713Z,9.76
2023-05-19T12:54:26.335Z,9.82
2023-05-19T12:57:32.678Z,9.86
2023-05-19T13:00:46.138Z,9.98
2023-05-19T13:03:49.681Z,10.09
2023-05-19T13:06:53.873Z,10.18
2023-05-19T13:10:21.909Z,10.26
2023-05-19T13:17:01.723Z,10.29
2023-05-19T13:20:30.277Z,10.35
2023-05-19T13:23:33.756Z,10.39
2023-05-19T13:26:37.085Z,10.38
2023-05-19T13:29:40.423Z,10.36
2023-05-19T13:32:44.925Z,10.31
2023-05-19T13:35:50.038Z,10.34
2023-05-19T13:38:54.798Z,10.35
2023-05-19T13:41:59.575Z,10.35
2023-05-19T13:45:03.696Z,10.36
2023-05-19T13:48:08.126Z,10.33
2023-05-19T13:51:11.637Z,10.32
2023-05-19T13:54:15.122Z,10.31
2023-05-19T13:57:18.523Z,10.34
2023-05-19T14:00:23.333Z,10.34
2023-05-19T14:03:27.960Z,10.32
2023-05-19T14:06:32.340Z,10.31
2023-05-19T14:09:35.553Z,10.38
2023-05-19T14:12:54.986Z,10.38
2023-05-19T14:16:03.331Z,10.47
2023-05-19T14:19:06.666Z,10.53
2023-05-19T14:22:11.247Z,10.50
2023-05-19T14:25:14.861Z,10.53
2023-05-19T14:28:18.674Z,10.60
2023-05-19T14:31:22.751Z,10.52
2023-05-19T14:37:54.774Z,10.40
2023-05-19T14:40:59.514Z,10.36
2023-05-19T14:44:02.792Z,10.27
2023-05-19T14:47:08.446Z,10.26
2023-05-19T14:50:12.841Z,10.21
2023-05-19T14:53:16.845Z,10.24
2023-05-19T14:56:22.787Z,10.27
2023-05-19T14:59:26.748Z,10.31
2023-05-19T15:02:30.468Z,10.26
2023-05-19T15:05:34.224Z,10.25
2023-05-19T15:08:38.760Z,10.28
2023-05-19T15:11:42.686Z,10.40
2023-05-19T15:14:46.277Z,10.49
2023-05-19T15:17:50.924Z,10.53
2023-05-19T15:20:54.450Z,10.52
2023-05-19T15:23:58.275Z,10.46
2023-05-19T15:27:03.800Z,10.41
2023-05-19T15:30:09.132Z,10.32
2023-05-19T15:33:13.072Z,10.27
2023-05-19T15:36:17.375Z,10.29
2023-05-19T15:39:21.918Z,10.31
2023-05-19T15:42:27.093Z,10.38
2023-05-19T15:45:30.387Z,10.41
2023-05-19T15:48:33.746Z,10.39
2023-05-19T15:51:39.327Z,10.36
2023-05-19T15:54:43.132Z,10.35
2023-05-19T15:57:47.123Z,10.35
2023-05-19T16:00:50.961Z,10.31
2023-05-19T16:03:56.705Z,10.37
2023-05-19T16:07:00.215Z,10.35
2023-05-19T16:10:04.503Z,10.42
2023-05-19T16:13:08.473Z,10.47
2023-05-19T16:16:13.256Z,10.44
2023-05-19T16:19:17.042Z,10.40
2023-05-19T16:22:25.301Z,10.35
2023-05-19T16:25:30.156Z,10.31
2023-05-19T16:28:33.531Z,10.31
2023-05-19T16:31:37.394Z,10.30
2023-05-19T16:34:42.781Z,10.35
2023-05-19T16:37:46.227Z,10.36
2023-05-19T16:40:49.513Z,10.33
2023-05-19T16:43:52.913Z,10.41
2023-05-19T16:46:56.446Z,10.44
2023-05-19T16:50:00.368Z,10.45
2023-05-19T16:53:04.372Z,10.43
2023-05-19T16:56:09.137Z,10.47
2023-05-19T16:59:13.191Z,10.54
2023-05-19T17:02:17.897Z,10.57
2023-05-19T17:05:22.040Z,10.62
2023-05-19T17:08:27.807Z,10.60
2023-05-19T17:11:32.230Z,10.53
2023-05-19T17:14:36.957Z,10.49
2023-05-19T17:17:41.002Z,10.44
2023-05-19T17:20:47.009Z,10.40
2023-05-19T17:23:51.543Z,10.31
2023-05-19T17:26:57.050Z,10.27
2023-05-19T17:30:01.280Z,10.32
2023-05-19T17:33:06.070Z,10.41
2023-05-19T17:36:10.759Z,10.39
2023-05-19T17:39:17.712Z,10.43
2023-05-19T17:42:22.326Z,10.39
2023-05-19T17:45:28.636Z,10.31
2023-05-19T17:48:32.333Z,10.34
2023-05-19T17:51:36.589Z,10.43
2023-05-19T17:54:41.101Z,10.44
2023-05-19T17:57:46.637Z,10.51
2023-05-19T18:00:51.962Z,10.50
2023-05-19T18:03:56.946Z,10.49
2023-05-19T18:07:03.643Z,10.50
2023-05-19T18:10:11.456Z,10.52
2023-05-19T18:13:15.186Z,10.54
2023-05-19T18:16:19.656Z,10.55
2023-05-19T18:19:23.913Z,10.56
2023-05-19T18:22:28.615Z,10.52
2023-05-19T18:25:32.817Z,10.51
2023-05-19T18:28:37.419Z,10.49
2023-05-19T18:31:41.905Z,10.52
2023-05-19T18:34:46.930Z,10.53
2023-05-19T18:37:53.030Z,10.52
2023-05-19T18:40:57.773Z,10.50
2023-05-19T18:44:02.098Z,10.53
2023-05-19T18:47:07.214Z,10.50
2023-05-19T18:50:12.701Z,10.48
2023-05-19T18:53:16.203Z,10.47
2023-05-19T18:56:29.855Z,10.51
2023-05-19T18:59:33.847Z,10.49
2023-05-19T19:02:39.228Z,10.54
2023-05-19T19:05:55.997Z,10.62
2023-05-19T19:08:59.357Z,10.67
2023-05-19T19:12:03.501Z,10.66
2023-05-19T19:15:07.476Z,10.59
2023-05-19T19:18:10.756Z,10.55
2023-05-19T19:21:14.076Z,10.51
2023-05-19T19:24:18.663Z,10.49
2023-05-19T19:27:22.043Z,10.49
2023-05-19T19:30:26.639Z,10.46
2023-05-19T19:33:30.518Z,10.44
2023-05-19T19:36:33.745Z,10.44
2023-05-19T19:39:38.885Z,10.40
2023-05-19T19:42:43.142Z,10.36
2023-05-19T19:45:47.034Z,10.30
2023-05-19T19:48:51.290Z,10.25
2023-05-19T19:51:55.197Z,10.20
2023-05-19T19:54:59.635Z,10.16
2023-05-19T19:58:03.588Z,10.15
2023-05-19T20:01:08.807Z,10.18
2023-05-19T20:04:12.910Z,10.18
2023-05-19T20:07:20.599Z,10.24
2023-05-19T20:10:24.400Z,10.22
2023-05-19T20:13:29.981Z,10.26
2023-05-19T20:16:36.598Z,10.23
2023-05-19T20:19:40.864Z,10.17
2023-05-19T20:22:47.594Z,10.11
2023-05-19T20:26:10.268Z,10.03
2023-05-19T20:29:15.146Z,10.01
2023-05-19T20:32:19.115Z,9.98
2023-05-19T20:35:23.159Z,9.93
2023-05-19T20:38:26.924Z,9.91
2023-05-19T20:41:30.539Z,9.95
2023-05-19T20:44:34.692Z,9.92
2023-05-19T20:47:38.695Z,9.99
2023-05-19T20:50:42.818Z,9.99
2023-05-19T20:53:46.546Z,9.95
2023-05-19T20:56:52.244Z,9.93
2023-05-19T20:59:55.254Z,9.94
2023-05-19T21:02:58.681Z,9.90
2023-05-19T21:06:02.498Z,9.86
2023-05-19T21:09:07.639Z,9.82
2023-05-19T21:12:11.176Z,9.77
2023-05-19T21:15:15.437Z,9.76
2023-05-19T21:18:19.068Z,9.78
2023-05-19T21:21:23.083Z,9.84
2023-05-19T21:24:27.152Z,9.94
2023-05-19T21:27:33.378Z,10.02
2023-05-19T21:30:36.992Z,10.14
2023-05-19T21:33:40.696Z,10.29
2023-05-19T21:36:44.432Z,10.45
2023-05-19T21:39:48.341Z,10.63
2023-05-19T21:42:52.033Z,10.79
2023-05-19T21:45:55.962Z,11.02
2023-05-19T21:48:59.726Z,11.15
2023-05-19T21:52:03.844Z,11.28
2023-05-19T21:55:08.508Z,11.42
2023-05-19T21:58:12.567Z,11.67
2023-05-19T22:01:16.285Z,12.01
2023-05-19T22:04:21.011Z,12.17
2023-05-19T22:07:27.383Z,12.16
2023-05-19T22:10:31.462Z,12.29
2023-05-19T22:13:35.760Z,12.49
2023-05-19T22:16:39.879Z,12.60
2023-05-19T22:19:43.571Z,12.78
2023-05-19T22:22:47.640Z,13.18
2023-05-19T22:25:51.590Z,15.44
2023-05-19T22:28:56.350Z,17.36
2023-05-19T22:32:00.159Z,16.80
2023-05-19T22:35:04.309Z,15.81
2023-05-19T22:38:10.271Z,15.32
2023-05-19T22:41:14.700Z,15.09
2023-05-19T22:44:20.098Z,15.00
2023-05-19T22:47:24.659Z,17.31
2023-05-19T22:50:28.355Z,20.23
2023-05-19T22:53:32.392Z,21.85
2023-05-19T22:56:35.948Z,23.39
2023-05-19T22:59:39.659Z,23.54
2023-05-19T23:02:43.372Z,24.01
2023-05-19T23:05:47.384Z,24.09
2023-05-19T23:09:00.061Z,24.97
2023-05-19T23:12:04.144Z,25.04
2023-05-19T23:15:10.106Z,25.78
2023-05-19T23:18:15.980Z,26.06
2023-05-19T23:21:20.006Z,26.91
2023-05-19T23:24:24.020Z,27.64
2023-05-19T23:27:27.632Z,27.42
2023-05-19T23:30:32.292Z,25.41
2023-05-19T23:33:36.054Z,26.21
2023-05-19T23:36:39.649Z,26.67
2023-05-19T23:39:43.703Z,27.94
2023-05-19T23:42:47.733Z,28.80
2023-05-19T23:45:51.511Z,29.04
2023-05-19T23:48:55.207Z,29.81
2023-05-19T23:51:58.895Z,29.29
2023-05-19T23:55:04.444Z,28.19
2023-05-19T23:58:08.157Z,28.60
